McClure, Virginia
Current Conditions -  °F | °C
As of 4:35 AM on Monday 22 Dec 2014 (Local Time) from KLNP Reporting Station
Broken Clouds Broken Clouds  
Wind Chill: 37°   Ceiling: 3200
Heat Index: 37°   Visibility: 10mi
Dew Point: 32°   Wind: 3mph
Humidity: 81%   Direction: 160°SSE
Pressure: 30.04"   Gusts: NA
Location:  37.1°N, 82.38°W
Report Text: KLNP 220935Z AUTO 16003KT 10SM BKN032 BKN060 03/00 A3004 RMK AO2
Loading
Personal Weather Stations






























Interactive Weather Map New forecast layout! Learn more

10-Day Weather Forecast

Advertisements
Track Severe Weather on mobile